sensor_id;sensor_type;location;lat;lon;timestamp;P1;durP1;ratioP1;P2;durP2;ratioP2
54745;SDS011;40640;48.130;11.356;2023-05-27T00:01:58;14.43;;;9.52;;
54745;SDS011;40640;48.130;11.356;2023-05-27T00:06:01;19.33;;;9.15;;
54745;SDS011;40640;48.130;11.356;2023-05-27T00:10:04;18.15;;;9.35;;
54745;SDS011;40640;48.130;11.356;2023-05-27T00:14:08;14.45;;;9.27;;
54745;SDS011;40640;48.130;11.356;2023-05-27T00:18:13;19.75;;;9.10;;
54745;SDS011;40640;48.130;11.356;2023-05-27T00:22:16;25.10;;;9.23;;
54745;SDS011;40640;48.130;11.356;2023-05-27T00:26:19;17.52;;;7.80;;
54745;SDS011;40640;48.130;11.356;2023-05-27T00:30:25;14.73;;;8.88;;
54745;SDS011;40640;48.130;11.356;2023-05-27T00:34:30;16.92;;;8.20;;
54745;SDS011;40640;48.130;11.356;2023-05-27T00:38:33;14.82;;;8.60;;
54745;SDS011;40640;48.130;11.356;2023-05-27T00:42:36;14.65;;;8.50;;
54745;SDS011;40640;48.130;11.356;2023-05-27T00:46:39;15.77;;;8.18;;
54745;SDS011;40640;48.130;11.356;2023-05-27T00:50:44;19.50;;;8.50;;
54745;SDS011;40640;48.130;11.356;2023-05-27T00:54:47;12.35;;;7.22;;
54745;SDS011;40640;48.130;11.356;2023-05-27T00:58:50;14.77;;;8.70;;
54745;SDS011;40640;48.130;11.356;2023-05-27T01:02:53;17.88;;;8.13;;
54745;SDS011;40640;48.130;11.356;2023-05-27T01:07:02;16.38;;;8.80;;
54745;SDS011;40640;48.130;11.356;2023-05-27T01:11:10;20.95;;;8.00;;
54745;SDS011;40640;48.130;11.356;2023-05-27T01:15:15;15.13;;;8.57;;
54745;SDS011;40640;48.130;11.356;2023-05-27T01:19:23;19.45;;;7.60;;
54745;SDS011;40640;48.130;11.356;2023-05-27T01:23:33;14.85;;;8.30;;
54745;SDS011;40640;48.130;11.356;2023-05-27T01:27:40;18.63;;;8.95;;
54745;SDS011;40640;48.130;11.356;2023-05-27T01:31:46;12.82;;;8.23;;
54745;SDS011;40640;48.130;11.356;2023-05-27T01:35:54;22.42;;;8.75;;
54745;SDS011;40640;48.130;11.356;2023-05-27T01:40:01;12.25;;;8.55;;
54745;SDS011;40640;48.130;11.356;2023-05-27T01:44:07;16.20;;;8.82;;
54745;SDS011;40640;48.130;11.356;2023-05-27T01:48:11;16.95;;;8.35;;
54745;SDS011;40640;48.130;11.356;2023-05-27T01:52:13;15.43;;;8.98;;
54745;SDS011;40640;48.130;11.356;2023-05-27T01:56:18;14.02;;;8.43;;
54745;SDS011;40640;48.130;11.356;2023-05-27T02:00:22;16.23;;;9.13;;
54745;SDS011;40640;48.130;11.356;2023-05-27T02:04:26;21.58;;;8.95;;
54745;SDS011;40640;48.130;11.356;2023-05-27T02:08:29;14.38;;;8.55;;
54745;SDS011;40640;48.130;11.356;2023-05-27T02:12:33;19.85;;;8.93;;
54745;SDS011;40640;48.130;11.356;2023-05-27T02:16:37;12.88;;;8.23;;
54745;SDS011;40640;48.130;11.356;2023-05-27T02:20:41;16.65;;;8.90;;
54745;SDS011;40640;48.130;11.356;2023-05-27T02:24:44;17.55;;;9.95;;
54745;SDS011;40640;48.130;11.356;2023-05-27T02:28:49;18.45;;;9.15;;
54745;SDS011;40640;48.130;11.356;2023-05-27T02:32:52;14.40;;;8.48;;
54745;SDS011;40640;48.130;11.356;2023-05-27T02:36:56;13.95;;;8.25;;
54745;SDS011;40640;48.130;11.356;2023-05-27T02:41:01;16.25;;;9.05;;
54745;SDS011;40640;48.130;11.356;2023-05-27T02:45:06;16.55;;;9.85;;
54745;SDS011;40640;48.130;11.356;2023-05-27T02:49:10;14.23;;;8.80;;
54745;SDS011;40640;48.130;11.356;2023-05-27T02:53:13;14.20;;;8.73;;
54745;SDS011;40640;48.130;11.356;2023-05-27T02:57:17;14.48;;;9.15;;
54745;SDS011;40640;48.130;11.356;2023-05-27T03:01:22;14.45;;;9.10;;
54745;SDS011;40640;48.130;11.356;2023-05-27T03:05:25;18.23;;;9.25;;
54745;SDS011;40640;48.130;11.356;2023-05-27T03:09:28;17.27;;;9.00;;
54745;SDS011;40640;48.130;11.356;2023-05-27T03:13:32;15.10;;;9.25;;
54745;SDS011;40640;48.130;11.356;2023-05-27T03:17:37;15.73;;;9.23;;
54745;SDS011;40640;48.130;11.356;2023-05-27T03:21:40;16.30;;;10.50;;
54745;SDS011;40640;48.130;11.356;2023-05-27T03:25:43;15.40;;;9.45;;
54745;SDS011;40640;48.130;11.356;2023-05-27T03:29:46;17.35;;;10.15;;
54745;SDS011;40640;48.130;11.356;2023-05-27T03:33:51;18.23;;;9.75;;
54745;SDS011;40640;48.130;11.356;2023-05-27T03:37:54;15.07;;;9.65;;
54745;SDS011;40640;48.130;11.356;2023-05-27T03:41:57;14.90;;;9.20;;
54745;SDS011;40640;48.130;11.356;2023-05-27T03:46:01;18.58;;;8.75;;
54745;SDS011;40640;48.130;11.356;2023-05-27T03:50:06;16.67;;;8.77;;
54745;SDS011;40640;48.130;11.356;2023-05-27T03:54:09;20.35;;;9.63;;
54745;SDS011;40640;48.130;11.356;2023-05-27T03:58:12;16.17;;;9.98;;
54745;SDS011;40640;48.130;11.356;2023-05-27T04:02:15;18.10;;;9.50;;
54745;SDS011;40640;48.130;11.356;2023-05-27T04:06:20;18.00;;;9.63;;
54745;SDS011;40640;48.130;11.356;2023-05-27T04:10:23;17.33;;;9.60;;
54745;SDS011;40640;48.130;11.356;2023-05-27T04:14:28;16.97;;;9.07;;
54745;SDS011;40640;48.130;11.356;2023-05-27T04:18:32;14.90;;;9.35;;
54745;SDS011;40640;48.130;11.356;2023-05-27T04:22:36;14.63;;;8.93;;
54745;SDS011;40640;48.130;11.356;2023-05-27T04:26:39;17.02;;;9.05;;
54745;SDS011;40640;48.130;11.356;2023-05-27T04:30:43;19.05;;;9.30;;
54745;SDS011;40640;48.130;11.356;2023-05-27T04:34:54;14.38;;;9.23;;
54745;SDS011;40640;48.130;11.356;2023-05-27T04:39:00;17.08;;;9.70;;
54745;SDS011;40640;48.130;11.356;2023-05-27T04:43:06;18.42;;;10.57;;
54745;SDS011;40640;48.130;11.356;2023-05-27T04:47:09;17.10;;;8.82;;
54745;SDS011;40640;48.130;11.356;2023-05-27T04:51:12;17.88;;;9.27;;
54745;SDS011;40640;48.130;11.356;2023-05-27T04:55:18;18.17;;;9.43;;
54745;SDS011;40640;48.130;11.356;2023-05-27T04:59:22;16.67;;;9.15;;
54745;SDS011;40640;48.130;11.356;2023-05-27T05:03:32;18.15;;;9.00;;
54745;SDS011;40640;48.130;11.356;2023-05-27T05:07:41;19.17;;;8.38;;
54745;SDS011;40640;48.130;11.356;2023-05-27T05:11:48;15.32;;;8.55;;
54745;SDS011;40640;48.130;11.356;2023-05-27T05:15:51;13.93;;;8.07;;
54745;SDS011;40640;48.130;11.356;2023-05-27T05:19:56;13.95;;;7.65;;
54745;SDS011;40640;48.130;11.356;2023-05-27T05:24:00;14.63;;;7.57;;
54745;SDS011;40640;48.130;11.356;2023-05-27T05:28:06;15.93;;;7.72;;
54745;SDS011;40640;48.130;11.356;2023-05-27T05:36:15;14.48;;;7.28;;
54745;SDS011;40640;48.130;11.356;2023-05-27T05:40:38;17.65;;;9.93;;
54745;SDS011;40640;48.130;11.356;2023-05-27T05:44:50;15.40;;;6.93;;
54745;SDS011;40640;48.130;11.356;2023-05-27T05:48:54;11.85;;;5.82;;
54745;SDS011;40640;48.130;11.356;2023-05-27T05:53:06;13.25;;;6.20;;
54745;SDS011;40640;48.130;11.356;2023-05-27T05:57:09;15.23;;;6.20;;
54745;SDS011;40640;48.130;11.356;2023-05-27T06:01:15;9.32;;;6.07;;
54745;SDS011;40640;48.130;11.356;2023-05-27T06:05:18;11.40;;;6.07;;
54745;SDS011;40640;48.130;11.356;2023-05-27T06:09:22;9.23;;;4.90;;
54745;SDS011;40640;48.130;11.356;2023-05-27T06:13:29;10.82;;;5.25;;
54745;SDS011;40640;48.130;11.356;2023-05-27T06:17:35;11.37;;;5.67;;
54745;SDS011;40640;48.130;11.356;2023-05-27T06:21:37;12.40;;;5.60;;
54745;SDS011;40640;48.130;11.356;2023-05-27T06:26:03;12.90;;;5.53;;
54745;SDS011;40640;48.130;11.356;2023-05-27T06:30:13;14.45;;;5.28;;
54745;SDS011;40640;48.130;11.356;2023-05-27T06:34:19;10.23;;;5.07;;
54745;SDS011;40640;48.130;11.356;2023-05-27T06:38:23;11.07;;;4.95;;
54745;SDS011;40640;48.130;11.356;2023-05-27T06:42:27;12.00;;;5.32;;
54745;SDS011;40640;48.130;11.356;2023-05-27T06:46:51;11.60;;;5.50;;
54745;SDS011;40640;48.130;11.356;2023-05-27T06:51:04;10.35;;;4.88;;
54745;SDS011;40640;48.130;11.356;2023-05-27T06:55:08;10.23;;;5.20;;
54745;SDS011;40640;48.130;11.356;2023-05-27T06:59:29;15.85;;;5.43;;
54745;SDS011;40640;48.130;11.356;2023-05-27T07:03:32;13.20;;;5.78;;
54745;SDS011;40640;48.130;11.356;2023-05-27T07:07:38;11.88;;;5.80;;
54745;SDS011;40640;48.130;11.356;2023-05-27T07:11:41;18.55;;;6.22;;
54745;SDS011;40640;48.130;11.356;2023-05-27T07:15:49;16.60;;;5.25;;
54745;SDS011;40640;48.130;11.356;2023-05-27T07:19:52;13.00;;;6.20;;
54745;SDS011;40640;48.130;11.356;2023-05-27T07:23:57;14.85;;;5.82;;
54745;SDS011;40640;48.130;11.356;2023-05-27T07:28:08;12.80;;;5.18;;
54745;SDS011;40640;48.130;11.356;2023-05-27T07:32:17;18.15;;;5.60;;
54745;SDS011;40640;48.130;11.356;2023-05-27T07:36:20;15.43;;;5.80;;
54745;SDS011;40640;48.130;11.356;2023-05-27T07:40:24;18.95;;;6.72;;
54745;SDS011;40640;48.130;11.356;2023-05-27T07:44:27;15.82;;;5.38;;
54745;SDS011;40640;48.130;11.356;2023-05-27T07:48:31;12.77;;;5.47;;
54745;SDS011;40640;48.130;11.356;2023-05-27T07:52:34;11.02;;;4.97;;
54745;SDS011;40640;48.130;11.356;2023-05-27T07:56:48;14.95;;;4.85;;
54745;SDS011;40640;48.130;11.356;2023-05-27T08:00:51;15.90;;;5.25;;
54745;SDS011;40640;48.130;11.356;2023-05-27T08:04:54;13.18;;;5.10;;
54745;SDS011;40640;48.130;11.356;2023-05-27T08:09:16;12.38;;;5.10;;
54745;SDS011;40640;48.130;11.356;2023-05-27T08:13:52;12.80;;;5.20;;
54745;SDS011;40640;48.130;11.356;2023-05-27T08:18:10;12.68;;;4.60;;
54745;SDS011;40640;48.130;11.356;2023-05-27T08:22:32;12.48;;;4.75;;
54745;SDS011;40640;48.130;11.356;2023-05-27T08:26:54;15.23;;;5.65;;
54745;SDS011;40640;48.130;11.356;2023-05-27T08:31:11;16.10;;;5.72;;
54745;SDS011;40640;48.130;11.356;2023-05-27T08:35:18;14.52;;;5.30;;
54745;SDS011;40640;48.130;11.356;2023-05-27T08:39:21;9.68;;;4.70;;
54745;SDS011;40640;48.130;11.356;2023-05-27T08:43:34;17.02;;;5.45;;
54745;SDS011;40640;48.130;11.356;2023-05-27T08:47:40;11.88;;;5.07;;
54745;SDS011;40640;48.130;11.356;2023-05-27T08:51:49;10.70;;;4.90;;
54745;SDS011;40640;48.130;11.356;2023-05-27T08:55:55;26.60;;;5.70;;
54745;SDS011;40640;48.130;11.356;2023-05-27T09:00:04;19.40;;;5.00;;
54745;SDS011;40640;48.130;11.356;2023-05-27T09:04:14;14.40;;;5.32;;
54745;SDS011;40640;48.130;11.356;2023-05-27T09:08:17;12.77;;;4.93;;
54745;SDS011;40640;48.130;11.356;2023-05-27T09:12:21;16.73;;;6.03;;
54745;SDS011;40640;48.130;11.356;2023-05-27T09:16:24;17.77;;;6.15;;
54745;SDS011;40640;48.130;11.356;2023-05-27T09:20:29;13.45;;;5.30;;
54745;SDS011;40640;48.130;11.356;2023-05-27T09:24:32;9.82;;;5.47;;
54745;SDS011;40640;48.130;11.356;2023-05-27T09:28:35;17.83;;;6.05;;
54745;SDS011;40640;48.130;11.356;2023-05-27T09:32:39;12.10;;;4.85;;
54745;SDS011;40640;48.130;11.356;2023-05-27T09:36:43;11.02;;;5.18;;
54745;SDS011;40640;48.130;11.356;2023-05-27T09:40:47;11.02;;;5.22;;
54745;SDS011;40640;48.130;11.356;2023-05-27T09:44:55;15.10;;;5.60;;
54745;SDS011;40640;48.130;11.356;2023-05-27T09:48:58;16.40;;;6.22;;
54745;SDS011;40640;48.130;11.356;2023-05-27T09:53:02;10.10;;;5.20;;
54745;SDS011;40640;48.130;11.356;2023-05-27T09:57:11;13.85;;;5.28;;
54745;SDS011;40640;48.130;11.356;2023-05-27T10:01:15;12.10;;;5.22;;
54745;SDS011;40640;48.130;11.356;2023-05-27T10:05:20;13.30;;;5.88;;
54745;SDS011;40640;48.130;11.356;2023-05-27T10:09:25;10.95;;;5.45;;
54745;SDS011;40640;48.130;11.356;2023-05-27T10:13:29;9.68;;;5.13;;
54745;SDS011;40640;48.130;11.356;2023-05-27T10:17:41;12.35;;;5.20;;
54745;SDS011;40640;48.130;11.356;2023-05-27T10:21:45;11.75;;;5.70;;
54745;SDS011;40640;48.130;11.356;2023-05-27T10:25:49;10.40;;;5.28;;
54745;SDS011;40640;48.130;11.356;2023-05-27T10:34:03;13.23;;;5.10;;
54745;SDS011;40640;48.130;11.356;2023-05-27T10:38:14;10.10;;;4.85;;
54745;SDS011;40640;48.130;11.356;2023-05-27T10:42:22;9.98;;;5.03;;
54745;SDS011;40640;48.130;11.356;2023-05-27T10:46:25;10.80;;;5.22;;
54745;SDS011;40640;48.130;11.356;2023-05-27T10:50:30;8.70;;;4.72;;
54745;SDS011;40640;48.130;11.356;2023-05-27T10:54:35;10.73;;;4.78;;
54745;SDS011;40640;48.130;11.356;2023-05-27T10:58:40;8.10;;;4.82;;
54745;SDS011;40640;48.130;11.356;2023-05-27T11:02:43;11.40;;;5.18;;
54745;SDS011;40640;48.130;11.356;2023-05-27T11:06:56;12.20;;;5.20;;
54745;SDS011;40640;48.130;11.356;2023-05-27T11:11:05;14.90;;;5.07;;
54745;SDS011;40640;48.130;11.356;2023-05-27T11:15:10;13.60;;;5.35;;
54745;SDS011;40640;48.130;11.356;2023-05-27T11:19:13;12.23;;;4.80;;
54745;SDS011;40640;48.130;11.356;2023-05-27T11:23:16;16.15;;;5.20;;
54745;SDS011;40640;48.130;11.356;2023-05-27T11:27:19;13.23;;;5.05;;
54745;SDS011;40640;48.130;11.356;2023-05-27T11:31:26;13.32;;;4.78;;
54745;SDS011;40640;48.130;11.356;2023-05-27T11:35:31;11.75;;;4.90;;
54745;SDS011;40640;48.130;11.356;2023-05-27T11:39:35;10.15;;;4.60;;
54745;SDS011;40640;48.130;11.356;2023-05-27T11:43:46;8.50;;;5.00;;
54745;SDS011;40640;48.130;11.356;2023-05-27T11:47:50;10.02;;;4.70;;
54745;SDS011;40640;48.130;11.356;2023-05-27T11:51:55;8.40;;;4.60;;
54745;SDS011;40640;48.130;11.356;2023-05-27T11:55:59;11.18;;;5.47;;
54745;SDS011;40640;48.130;11.356;2023-05-27T12:00:02;9.07;;;4.55;;
54745;SDS011;40640;48.130;11.356;2023-05-27T12:04:10;7.55;;;4.80;;
54745;SDS011;40640;48.130;11.356;2023-05-27T12:08:13;8.40;;;5.07;;
54745;SDS011;40640;48.130;11.356;2023-05-27T12:12:18;8.07;;;4.78;;
54745;SDS011;40640;48.130;11.356;2023-05-27T12:16:21;8.30;;;4.82;;
54745;SDS011;40640;48.130;11.356;2023-05-27T12:20:26;8.90;;;5.25;;
54745;SDS011;40640;48.130;11.356;2023-05-27T12:24:30;7.40;;;4.80;;
54745;SDS011;40640;48.130;11.356;2023-05-27T12:28:36;7.30;;;4.78;;
54745;SDS011;40640;48.130;11.356;2023-05-27T12:32:39;7.60;;;4.70;;
54745;SDS011;40640;48.130;11.356;2023-05-27T12:36:44;9.65;;;4.85;;
54745;SDS011;40640;48.130;11.356;2023-05-27T12:40:48;8.75;;;5.07;;
54745;SDS011;40640;48.130;11.356;2023-05-27T12:44:52;8.63;;;4.90;;
54745;SDS011;40640;48.130;11.356;2023-05-27T12:48:55;7.63;;;4.32;;
54745;SDS011;40640;48.130;11.356;2023-05-27T12:52:59;7.05;;;3.88;;
54745;SDS011;40640;48.130;11.356;2023-05-27T12:57:02;6.78;;;4.30;;
54745;SDS011;40640;48.130;11.356;2023-05-27T13:01:06;8.85;;;4.38;;
54745;SDS011;40640;48.130;11.356;2023-05-27T13:05:13;6.07;;;4.30;;
54745;SDS011;40640;48.130;11.356;2023-05-27T13:09:18;8.25;;;4.55;;
54745;SDS011;40640;48.130;11.356;2023-05-27T13:13:21;8.98;;;4.50;;
54745;SDS011;40640;48.130;11.356;2023-05-27T13:17:24;8.00;;;4.70;;
54745;SDS011;40640;48.130;11.356;2023-05-27T13:21:27;7.63;;;4.28;;
54745;SDS011;40640;48.130;11.356;2023-05-27T13:25:31;11.80;;;4.50;;
54745;SDS011;40640;48.130;11.356;2023-05-27T13:33:37;7.75;;;4.43;;
54745;SDS011;40640;48.130;11.356;2023-05-27T13:37:40;7.85;;;5.00;;
54745;SDS011;40640;48.130;11.356;2023-05-27T13:41:45;11.82;;;4.70;;
54745;SDS011;40640;48.130;11.356;2023-05-27T13:45:48;7.82;;;4.70;;
54745;SDS011;40640;48.130;11.356;2023-05-27T13:49:51;8.77;;;4.72;;
54745;SDS011;40640;48.130;11.356;2023-05-27T13:53:54;7.88;;;4.13;;
54745;SDS011;40640;48.130;11.356;2023-05-27T13:57:58;9.45;;;4.97;;
54745;SDS011;40640;48.130;11.356;2023-05-27T14:02:01;10.82;;;4.57;;
54745;SDS011;40640;48.130;11.356;2023-05-27T14:06:07;18.65;;;5.70;;
54745;SDS011;40640;48.130;11.356;2023-05-27T14:10:10;11.57;;;5.00;;
54745;SDS011;40640;48.130;11.356;2023-05-27T14:14:15;11.82;;;5.22;;
54745;SDS011;40640;48.130;11.356;2023-05-27T14:18:18;10.63;;;4.60;;
54745;SDS011;40640;48.130;11.356;2023-05-27T14:22:21;10.85;;;4.72;;
54745;SDS011;40640;48.130;11.356;2023-05-27T14:26:23;11.73;;;4.80;;
54745;SDS011;40640;48.130;11.356;2023-05-27T14:30:28;14.35;;;4.90;;
54745;SDS011;40640;48.130;11.356;2023-05-27T14:34:32;8.37;;;4.43;;
54745;SDS011;40640;48.130;11.356;2023-05-27T14:38:35;9.95;;;5.25;;
54745;SDS011;40640;48.130;11.356;2023-05-27T14:42:38;11.88;;;4.38;;
54745;SDS011;40640;48.130;11.356;2023-05-27T14:46:42;7.50;;;4.53;;
54745;SDS011;40640;48.130;11.356;2023-05-27T14:50:45;12.80;;;4.70;;
54745;SDS011;40640;48.130;11.356;2023-05-27T14:54:47;12.35;;;4.55;;
54745;SDS011;40640;48.130;11.356;2023-05-27T14:58:50;8.50;;;4.35;;
54745;SDS011;40640;48.130;11.356;2023-05-27T15:02:55;10.88;;;4.32;;
54745;SDS011;40640;48.130;11.356;2023-05-27T15:06:58;12.95;;;4.60;;
54745;SDS011;40640;48.130;11.356;2023-05-27T15:11:01;9.90;;;4.30;;
54745;SDS011;40640;48.130;11.356;2023-05-27T15:15:04;13.32;;;4.50;;
54745;SDS011;40640;48.130;11.356;2023-05-27T15:19:09;10.13;;;5.03;;
54745;SDS011;40640;48.130;11.356;2023-05-27T15:23:12;12.70;;;4.22;;
54745;SDS011;40640;48.130;11.356;2023-05-27T15:27:15;13.68;;;4.10;;
54745;SDS011;40640;48.130;11.356;2023-05-27T15:31:18;10.50;;;4.35;;
54745;SDS011;40640;48.130;11.356;2023-05-27T15:35:25;11.13;;;4.25;;
54745;SDS011;40640;48.130;11.356;2023-05-27T15:39:29;6.93;;;4.10;;
54745;SDS011;40640;48.130;11.356;2023-05-27T15:43:32;13.00;;;4.57;;
54745;SDS011;40640;48.130;11.356;2023-05-27T15:47:35;8.85;;;4.05;;
54745;SDS011;40640;48.130;11.356;2023-05-27T15:51:39;11.57;;;4.10;;
54745;SDS011;40640;48.130;11.356;2023-05-27T15:55:42;8.77;;;4.28;;
54745;SDS011;40640;48.130;11.356;2023-05-27T15:59:45;11.02;;;3.80;;
54745;SDS011;40640;48.130;11.356;2023-05-27T16:03:49;8.98;;;4.88;;
54745;SDS011;40640;48.130;11.356;2023-05-27T16:07:53;9.75;;;4.35;;
54745;SDS011;40640;48.130;11.356;2023-05-27T16:11:56;8.10;;;3.92;;
54745;SDS011;40640;48.130;11.356;2023-05-27T16:15:59;10.57;;;3.90;;
54745;SDS011;40640;48.130;11.356;2023-05-27T16:20:02;16.63;;;4.57;;
54745;SDS011;40640;48.130;11.356;2023-05-27T16:24:07;11.18;;;4.30;;
54745;SDS011;40640;48.130;11.356;2023-05-27T16:28:11;8.43;;;3.63;;
54745;SDS011;40640;48.130;11.356;2023-05-27T16:32:14;6.40;;;3.20;;
54745;SDS011;40640;48.130;11.356;2023-05-27T16:36:17;7.88;;;3.28;;
54745;SDS011;40640;48.130;11.356;2023-05-27T16:40:21;7.88;;;3.75;;
54745;SDS011;40640;48.130;11.356;2023-05-27T16:44:24;8.27;;;3.13;;
54745;SDS011;40640;48.130;11.356;2023-05-27T16:48:27;8.80;;;3.50;;
54745;SDS011;40640;48.130;11.356;2023-05-27T16:52:30;9.68;;;3.40;;
54745;SDS011;40640;48.130;11.356;2023-05-27T16:56:34;6.72;;;3.10;;
54745;SDS011;40640;48.130;11.356;2023-05-27T17:00:37;5.63;;;3.20;;
54745;SDS011;40640;48.130;11.356;2023-05-27T17:04:40;7.72;;;3.33;;
54745;SDS011;40640;48.130;11.356;2023-05-27T17:08:43;12.13;;;4.00;;
54745;SDS011;40640;48.130;11.356;2023-05-27T17:12:49;17.50;;;3.65;;
54745;SDS011;40640;48.130;11.356;2023-05-27T17:16:53;8.10;;;3.35;;
54745;SDS011;40640;48.130;11.356;2023-05-27T17:20:56;6.72;;;2.97;;
54745;SDS011;40640;48.130;11.356;2023-05-27T17:24:59;9.27;;;3.35;;
54745;SDS011;40640;48.130;11.356;2023-05-27T17:29:04;8.60;;;3.50;;
54745;SDS011;40640;48.130;11.356;2023-05-27T17:33:06;8.55;;;3.30;;
54745;SDS011;40640;48.130;11.356;2023-05-27T17:37:09;7.78;;;2.65;;
54745;SDS011;40640;48.130;11.356;2023-05-27T17:41:12;10.27;;;2.95;;
54745;SDS011;40640;48.130;11.356;2023-05-27T17:45:17;7.90;;;3.45;;
54745;SDS011;40640;48.130;11.356;2023-05-27T17:49:20;6.35;;;2.83;;
54745;SDS011;40640;48.130;11.356;2023-05-27T17:53:23;7.38;;;2.80;;
54745;SDS011;40640;48.130;11.356;2023-05-27T17:57:25;11.20;;;3.47;;
54745;SDS011;40640;48.130;11.356;2023-05-27T18:01:31;7.20;;;2.95;;
54745;SDS011;40640;48.130;11.356;2023-05-27T18:05:34;21.98;;;4.60;;
54745;SDS011;40640;48.130;11.356;2023-05-27T18:09:37;7.50;;;3.30;;
54745;SDS011;40640;48.130;11.356;2023-05-27T18:13:41;7.28;;;3.28;;
54745;SDS011;40640;48.130;11.356;2023-05-27T18:17:45;11.73;;;3.60;;
54745;SDS011;40640;48.130;11.356;2023-05-27T18:21:48;10.75;;;3.60;;
54745;SDS011;40640;48.130;11.356;2023-05-27T18:25:51;6.07;;;3.10;;
54745;SDS011;40640;48.130;11.356;2023-05-27T18:29:54;9.68;;;4.50;;
54745;SDS011;40640;48.130;11.356;2023-05-27T18:33:58;12.13;;;4.10;;
54745;SDS011;40640;48.130;11.356;2023-05-27T18:38:01;6.90;;;3.40;;
54745;SDS011;40640;48.130;11.356;2023-05-27T18:42:04;11.52;;;3.22;;
54745;SDS011;40640;48.130;11.356;2023-05-27T18:46:08;6.60;;;3.53;;
54745;SDS011;40640;48.130;11.356;2023-05-27T18:50:12;13.05;;;4.13;;
54745;SDS011;40640;48.130;11.356;2023-05-27T18:54:31;10.45;;;3.65;;
54745;SDS011;40640;48.130;11.356;2023-05-27T18:58:34;10.15;;;3.97;;
54745;SDS011;40640;48.130;11.356;2023-05-27T19:02:37;9.73;;;3.60;;
54745;SDS011;40640;48.130;11.356;2023-05-27T19:06:42;14.15;;;4.10;;
54745;SDS011;40640;48.130;11.356;2023-05-27T19:10:45;9.13;;;3.80;;
54745;SDS011;40640;48.130;11.356;2023-05-27T19:14:48;12.40;;;3.72;;
54745;SDS011;40640;48.130;11.356;2023-05-27T19:18:51;6.75;;;3.38;;
54745;SDS011;40640;48.130;11.356;2023-05-27T19:22:56;12.73;;;4.10;;
54745;SDS011;40640;48.130;11.356;2023-05-27T19:26:59;15.38;;;3.70;;
54745;SDS011;40640;48.130;11.356;2023-05-27T19:31:03;10.65;;;4.90;;
54745;SDS011;40640;48.130;11.356;2023-05-27T19:35:08;10.77;;;4.10;;
54745;SDS011;40640;48.130;11.356;2023-05-27T19:39:15;8.68;;;3.90;;
54745;SDS011;40640;48.130;11.356;2023-05-27T19:43:18;11.73;;;4.25;;
54745;SDS011;40640;48.130;11.356;2023-05-27T19:47:22;11.75;;;4.35;;
54745;SDS011;40640;48.130;11.356;2023-05-27T19:51:25;8.18;;;3.90;;
54745;SDS011;40640;48.130;11.356;2023-05-27T19:55:29;7.53;;;3.65;;
54745;SDS011;40640;48.130;11.356;2023-05-27T19:59:32;10.23;;;3.97;;
54745;SDS011;40640;48.130;11.356;2023-05-27T20:03:35;14.43;;;4.47;;
54745;SDS011;40640;48.130;11.356;2023-05-27T20:07:39;10.77;;;4.70;;
54745;SDS011;40640;48.130;11.356;2023-05-27T20:11:43;12.63;;;4.22;;
54745;SDS011;40640;48.130;11.356;2023-05-27T20:15:46;9.82;;;4.30;;
54745;SDS011;40640;48.130;11.356;2023-05-27T20:19:49;12.30;;;4.10;;
54745;SDS011;40640;48.130;11.356;2023-05-27T20:23:52;6.60;;;3.53;;
54745;SDS011;40640;48.130;11.356;2023-05-27T20:27:58;9.83;;;4.30;;
54745;SDS011;40640;48.130;11.356;2023-05-27T20:32:01;9.52;;;4.43;;
54745;SDS011;40640;48.130;11.356;2023-05-27T20:36:04;13.93;;;4.55;;
54745;SDS011;40640;48.130;11.356;2023-05-27T20:40:08;10.75;;;4.40;;
54745;SDS011;40640;48.130;11.356;2023-05-27T20:44:13;10.70;;;4.65;;
54745;SDS011;40640;48.130;11.356;2023-05-27T20:48:16;12.82;;;4.55;;
54745;SDS011;40640;48.130;11.356;2023-05-27T20:52:19;16.50;;;6.88;;
54745;SDS011;40640;48.130;11.356;2023-05-27T20:56:21;34.22;;;14.57;;
54745;SDS011;40640;48.130;11.356;2023-05-27T21:00:30;18.88;;;7.68;;
54745;SDS011;40640;48.130;11.356;2023-05-27T21:04:33;14.82;;;6.95;;
54745;SDS011;40640;48.130;11.356;2023-05-27T21:08:36;16.88;;;7.13;;
54745;SDS011;40640;48.130;11.356;2023-05-27T21:12:39;14.82;;;5.97;;
54745;SDS011;40640;48.130;11.356;2023-05-27T21:16:43;19.73;;;7.97;;
54745;SDS011;40640;48.130;11.356;2023-05-27T21:20:46;12.65;;;6.07;;
54745;SDS011;40640;48.130;11.356;2023-05-27T21:24:51;13.95;;;5.90;;
54745;SDS011;40640;48.130;11.356;2023-05-27T21:28:54;13.18;;;5.40;;
54745;SDS011;40640;48.130;11.356;2023-05-27T21:32:59;12.30;;;4.93;;
54745;SDS011;40640;48.130;11.356;2023-05-27T21:37:02;12.35;;;6.00;;
54745;SDS011;40640;48.130;11.356;2023-05-27T21:41:05;16.42;;;6.38;;
54745;SDS011;40640;48.130;11.356;2023-05-27T21:45:08;17.83;;;5.20;;
54745;SDS011;40640;48.130;11.356;2023-05-27T21:49:13;13.45;;;5.68;;
54745;SDS011;40640;48.130;11.356;2023-05-27T21:53:16;11.15;;;6.35;;
54745;SDS011;40640;48.130;11.356;2023-05-27T21:57:19;11.32;;;5.85;;
54745;SDS011;40640;48.130;11.356;2023-05-27T22:01:22;14.70;;;5.63;;
54745;SDS011;40640;48.130;11.356;2023-05-27T22:05:26;14.55;;;6.10;;
54745;SDS011;40640;48.130;11.356;2023-05-27T22:09:29;15.20;;;6.22;;
54745;SDS011;40640;48.130;11.356;2023-05-27T22:13:32;15.82;;;6.10;;
54745;SDS011;40640;48.130;11.356;2023-05-27T22:17:35;19.95;;;6.88;;
54745;SDS011;40640;48.130;11.356;2023-05-27T22:21:39;14.07;;;7.30;;
54745;SDS011;40640;48.130;11.356;2023-05-27T22:25:42;21.10;;;7.05;;
54745;SDS011;40640;48.130;11.356;2023-05-27T22:29:45;18.90;;;7.65;;
54745;SDS011;40640;48.130;11.356;2023-05-27T22:33:48;19.00;;;6.32;;
54745;SDS011;40640;48.130;11.356;2023-05-27T22:37:52;14.82;;;6.10;;
54745;SDS011;40640;48.130;11.356;2023-05-27T22:41:55;13.57;;;6.10;;
54745;SDS011;40640;48.130;11.356;2023-05-27T22:45:58;13.45;;;5.65;;
54745;SDS011;40640;48.130;11.356;2023-05-27T22:50:00;16.88;;;6.70;;
54745;SDS011;40640;48.130;11.356;2023-05-27T22:54:05;14.43;;;5.95;;
54745;SDS011;40640;48.130;11.356;2023-05-27T22:58:08;12.88;;;5.90;;
54745;SDS011;40640;48.130;11.356;2023-05-27T23:02:10;13.07;;;5.53;;
54745;SDS011;40640;48.130;11.356;2023-05-27T23:06:13;7.82;;;4.97;;
54745;SDS011;40640;48.130;11.356;2023-05-27T23:10:18;13.32;;;5.38;;
54745;SDS011;40640;48.130;11.356;2023-05-27T23:14:20;13.65;;;6.30;;
54745;SDS011;40640;48.130;11.356;2023-05-27T23:18:23;11.98;;;7.00;;
54745;SDS011;40640;48.130;11.356;2023-05-27T23:22:26;15.25;;;6.63;;
54745;SDS011;40640;48.130;11.356;2023-05-27T23:26:31;16.05;;;6.30;;
54745;SDS011;40640;48.130;11.356;2023-05-27T23:30:33;14.82;;;6.45;;
54745;SDS011;40640;48.130;11.356;2023-05-27T23:34:36;12.10;;;6.43;;
54745;SDS011;40640;48.130;11.356;2023-05-27T23:38:39;14.57;;;6.13;;
54745;SDS011;40640;48.130;11.356;2023-05-27T23:42:43;11.43;;;5.55;;
54745;SDS011;40640;48.130;11.356;2023-05-27T23:46:48;12.30;;;5.60;;
54745;SDS011;40640;48.130;11.356;2023-05-27T23:50:51;11.88;;;5.25;;
54745;SDS011;40640;48.130;11.356;2023-05-27T23:54:54;12.63;;;5.22;;
54745;SDS011;40640;48.130;11.356;2023-05-27T23:58:58;13.10;;;5.85;;
